sensor_id;sensor_type;location;lat;lon;timestamp;P1;durP1;ratioP1;P2;durP2;ratioP2
12407;SDS011;6268;48.188;17.134;2023-04-15T00:01:58;3.37;;;3.17;;
12407;SDS011;6268;48.188;17.134;2023-04-15T00:04:27;3.37;;;3.17;;
12407;SDS011;6268;48.188;17.134;2023-04-15T00:06:57;3.70;;;3.50;;
12407;SDS011;6268;48.188;17.134;2023-04-15T00:09:27;3.90;;;3.70;;
12407;SDS011;6268;48.188;17.134;2023-04-15T00:11:56;4.13;;;3.83;;
12407;SDS011;6268;48.188;17.134;2023-04-15T00:14:25;3.83;;;3.47;;
12407;SDS011;6268;48.188;17.134;2023-04-15T00:16:54;4.23;;;3.83;;
12407;SDS011;6268;48.188;17.134;2023-04-15T00:19:23;4.10;;;3.90;;
12407;SDS011;6268;48.188;17.134;2023-04-15T00:21:52;3.50;;;3.30;;
12407;SDS011;6268;48.188;17.134;2023-04-15T00:24:22;4.20;;;4.00;;
12407;SDS011;6268;48.188;17.134;2023-04-15T00:26:52;3.87;;;3.67;;
12407;SDS011;6268;48.188;17.134;2023-04-15T00:29:21;3.70;;;3.50;;
12407;SDS011;6268;48.188;17.134;2023-04-15T00:31:50;5.23;;;4.93;;
12407;SDS011;6268;48.188;17.134;2023-04-15T00:34:22;4.87;;;4.57;;
12407;SDS011;6268;48.188;17.134;2023-04-15T00:36:52;5.10;;;4.80;;
12407;SDS011;6268;48.188;17.134;2023-04-15T00:39:21;5.00;;;4.60;;
12407;SDS011;6268;48.188;17.134;2023-04-15T00:41:50;5.63;;;5.13;;
12407;SDS011;6268;48.188;17.134;2023-04-15T00:44:22;4.90;;;4.60;;
12407;SDS011;6268;48.188;17.134;2023-04-15T00:46:52;5.33;;;5.03;;
12407;SDS011;6268;48.188;17.134;2023-04-15T00:49:22;5.77;;;5.30;;
12407;SDS011;6268;48.188;17.134;2023-04-15T00:51:52;5.60;;;5.30;;
12407;SDS011;6268;48.188;17.134;2023-04-15T00:54:21;5.50;;;5.13;;
12407;SDS011;6268;48.188;17.134;2023-04-15T00:56:52;4.97;;;4.67;;
12407;SDS011;6268;48.188;17.134;2023-04-15T00:59:22;6.10;;;5.70;;
12407;SDS011;6268;48.188;17.134;2023-04-15T01:01:51;7.50;;;6.90;;
12407;SDS011;6268;48.188;17.134;2023-04-15T01:04:20;5.90;;;5.50;;
12407;SDS011;6268;48.188;17.134;2023-04-15T01:06:50;5.70;;;5.30;;
12407;SDS011;6268;48.188;17.134;2023-04-15T01:09:24;5.87;;;5.47;;
12407;SDS011;6268;48.188;17.134;2023-04-15T01:11:58;6.27;;;5.80;;
12407;SDS011;6268;48.188;17.134;2023-04-15T01:14:28;6.47;;;6.07;;
12407;SDS011;6268;48.188;17.134;2023-04-15T01:16:57;7.40;;;6.90;;
12407;SDS011;6268;48.188;17.134;2023-04-15T01:19:27;7.23;;;6.77;;
12407;SDS011;6268;48.188;17.134;2023-04-15T01:21:56;6.73;;;6.30;;
12407;SDS011;6268;48.188;17.134;2023-04-15T01:24:25;7.70;;;7.20;;
12407;SDS011;6268;48.188;17.134;2023-04-15T01:27:00;7.47;;;6.93;;
12407;SDS011;6268;48.188;17.134;2023-04-15T01:29:30;7.80;;;7.20;;
12407;SDS011;6268;48.188;17.134;2023-04-15T01:32:03;7.27;;;6.67;;
12407;SDS011;6268;48.188;17.134;2023-04-15T01:34:32;7.57;;;6.97;;
12407;SDS011;6268;48.188;17.134;2023-04-15T01:37:04;7.17;;;6.57;;
12407;SDS011;6268;48.188;17.134;2023-04-15T01:39:33;7.00;;;6.50;;
12407;SDS011;6268;48.188;17.134;2023-04-15T01:42:08;7.77;;;7.07;;
12407;SDS011;6268;48.188;17.134;2023-04-15T01:44:37;8.20;;;7.50;;
12407;SDS011;6268;48.188;17.134;2023-04-15T01:47:06;8.50;;;7.70;;
12407;SDS011;6268;48.188;17.134;2023-04-15T01:49:38;9.90;;;9.00;;
12407;SDS011;6268;48.188;17.134;2023-04-15T01:52:07;10.27;;;9.30;;
12407;SDS011;6268;48.188;17.134;2023-04-15T01:54:36;11.10;;;10.00;;
12407;SDS011;6268;48.188;17.134;2023-04-15T01:57:06;11.93;;;10.17;;
12407;SDS011;6268;48.188;17.134;2023-04-15T01:59:36;9.93;;;8.93;;
12407;SDS011;6268;48.188;17.134;2023-04-15T02:02:05;10.73;;;9.63;;
12407;SDS011;6268;48.188;17.134;2023-04-15T02:04:35;13.70;;;10.67;;
12407;SDS011;6268;48.188;17.134;2023-04-15T02:07:04;11.73;;;10.27;;
12407;SDS011;6268;48.188;17.134;2023-04-15T02:09:32;9.90;;;8.90;;
12407;SDS011;6268;48.188;17.134;2023-04-15T02:12:02;10.77;;;9.67;;
12407;SDS011;6268;48.188;17.134;2023-04-15T02:14:33;10.73;;;9.10;;
12407;SDS011;6268;48.188;17.134;2023-04-15T02:17:05;11.30;;;9.47;;
12407;SDS011;6268;48.188;17.134;2023-04-15T02:19:34;9.03;;;8.13;;
12407;SDS011;6268;48.188;17.134;2023-04-15T02:22:04;10.00;;;8.87;;
12407;SDS011;6268;48.188;17.134;2023-04-15T02:24:34;9.37;;;8.47;;
12407;SDS011;6268;48.188;17.134;2023-04-15T02:27:03;10.17;;;9.10;;
12407;SDS011;6268;48.188;17.134;2023-04-15T02:29:34;11.83;;;10.13;;
12407;SDS011;6268;48.188;17.134;2023-04-15T02:32:03;11.40;;;9.90;;
12407;SDS011;6268;48.188;17.134;2023-04-15T02:34:32;11.83;;;10.67;;
12407;SDS011;6268;48.188;17.134;2023-04-15T02:37:01;10.20;;;9.20;;
12407;SDS011;6268;48.188;17.134;2023-04-15T02:39:31;9.27;;;8.37;;
12407;SDS011;6268;48.188;17.134;2023-04-15T02:42:00;10.67;;;9.57;;
12407;SDS011;6268;48.188;17.134;2023-04-15T02:44:28;9.80;;;8.90;;
12407;SDS011;6268;48.188;17.134;2023-04-15T02:46:59;10.63;;;9.20;;
12407;SDS011;6268;48.188;17.134;2023-04-15T02:49:29;9.67;;;8.77;;
12407;SDS011;6268;48.188;17.134;2023-04-15T02:51:58;9.90;;;8.93;;
12407;SDS011;6268;48.188;17.134;2023-04-15T02:54:27;10.17;;;9.20;;
12407;SDS011;6268;48.188;17.134;2023-04-15T02:56:58;10.27;;;9.27;;
12407;SDS011;6268;48.188;17.134;2023-04-15T02:59:27;10.80;;;9.73;;
12407;SDS011;6268;48.188;17.134;2023-04-15T03:01:56;12.37;;;10.13;;
12407;SDS011;6268;48.188;17.134;2023-04-15T03:04:28;10.17;;;9.27;;
12407;SDS011;6268;48.188;17.134;2023-04-15T03:06:56;11.50;;;10.40;;
12407;SDS011;6268;48.188;17.134;2023-04-15T03:09:26;12.13;;;11.03;;
12407;SDS011;6268;48.188;17.134;2023-04-15T03:11:55;11.67;;;10.60;;
12407;SDS011;6268;48.188;17.134;2023-04-15T03:14:24;11.50;;;10.30;;
12407;SDS011;6268;48.188;17.134;2023-04-15T03:16:53;11.97;;;10.77;;
12407;SDS011;6268;48.188;17.134;2023-04-15T03:19:22;12.60;;;11.43;;
12407;SDS011;6268;48.188;17.134;2023-04-15T03:21:53;11.40;;;10.40;;
12407;SDS011;6268;48.188;17.134;2023-04-15T03:24:22;11.00;;;9.90;;
12407;SDS011;6268;48.188;17.134;2023-04-15T03:26:51;11.53;;;10.33;;
12407;SDS011;6268;48.188;17.134;2023-04-15T03:29:20;11.33;;;10.23;;
12407;SDS011;6268;48.188;17.134;2023-04-15T03:31:50;11.77;;;10.60;;
12407;SDS011;6268;48.188;17.134;2023-04-15T03:34:20;11.83;;;10.73;;
12407;SDS011;6268;48.188;17.134;2023-04-15T03:36:49;13.93;;;12.93;;
12407;SDS011;6268;48.188;17.134;2023-04-15T03:39:19;11.37;;;10.37;;
12407;SDS011;6268;48.188;17.134;2023-04-15T03:41:48;11.37;;;10.37;;
12407;SDS011;6268;48.188;17.134;2023-04-15T03:44:17;11.50;;;10.40;;
12407;SDS011;6268;48.188;17.134;2023-04-15T03:46:46;11.80;;;10.70;;
12407;SDS011;6268;48.188;17.134;2023-04-15T03:49:15;11.40;;;10.30;;
12407;SDS011;6268;48.188;17.134;2023-04-15T03:51:45;11.50;;;10.40;;
12407;SDS011;6268;48.188;17.134;2023-04-15T03:54:14;11.10;;;10.10;;
12407;SDS011;6268;48.188;17.134;2023-04-15T03:56:44;11.67;;;10.60;;
12407;SDS011;6268;48.188;17.134;2023-04-15T03:59:13;12.97;;;11.77;;
12407;SDS011;6268;48.188;17.134;2023-04-15T04:01:42;11.53;;;10.53;;
12407;SDS011;6268;48.188;17.134;2023-04-15T04:04:13;12.63;;;11.43;;
12407;SDS011;6268;48.188;17.134;2023-04-15T04:06:42;11.33;;;10.13;;
12407;SDS011;6268;48.188;17.134;2023-04-15T04:09:11;11.27;;;10.27;;
12407;SDS011;6268;48.188;17.134;2023-04-15T04:11:40;12.40;;;11.20;;
12407;SDS011;6268;48.188;17.134;2023-04-15T04:14:12;11.30;;;10.30;;
12407;SDS011;6268;48.188;17.134;2023-04-15T04:16:42;11.43;;;10.40;;
12407;SDS011;6268;48.188;17.134;2023-04-15T04:19:11;10.97;;;9.97;;
12407;SDS011;6268;48.188;17.134;2023-04-15T04:21:40;11.73;;;10.57;;
12407;SDS011;6268;48.188;17.134;2023-04-15T04:24:09;11.50;;;10.40;;
12407;SDS011;6268;48.188;17.134;2023-04-15T04:26:38;12.13;;;11.03;;
12407;SDS011;6268;48.188;17.134;2023-04-15T04:29:07;11.23;;;10.23;;
12407;SDS011;6268;48.188;17.134;2023-04-15T04:31:38;12.07;;;10.83;;
12407;SDS011;6268;48.188;17.134;2023-04-15T04:34:07;12.37;;;11.17;;
12407;SDS011;6268;48.188;17.134;2023-04-15T04:36:36;12.43;;;11.33;;
12407;SDS011;6268;48.188;17.134;2023-04-15T04:39:05;12.10;;;11.10;;
12407;SDS011;6268;48.188;17.134;2023-04-15T04:41:34;12.33;;;11.30;;
12407;SDS011;6268;48.188;17.134;2023-04-15T04:44:03;12.10;;;11.00;;
12407;SDS011;6268;48.188;17.134;2023-04-15T04:46:32;12.20;;;11.20;;
12407;SDS011;6268;48.188;17.134;2023-04-15T04:49:02;12.20;;;11.20;;
12407;SDS011;6268;48.188;17.134;2023-04-15T04:51:31;11.97;;;11.07;;
12407;SDS011;6268;48.188;17.134;2023-04-15T04:54:00;10.97;;;10.07;;
12407;SDS011;6268;48.188;17.134;2023-04-15T04:56:29;10.63;;;9.73;;
12407;SDS011;6268;48.188;17.134;2023-04-15T04:59:00;10.83;;;9.93;;
12407;SDS011;6268;48.188;17.134;2023-04-15T05:01:29;11.50;;;10.60;;
12407;SDS011;6268;48.188;17.134;2023-04-15T05:03:58;10.03;;;9.23;;
12407;SDS011;6268;48.188;17.134;2023-04-15T05:06:30;10.43;;;9.57;;
12407;SDS011;6268;48.188;17.134;2023-04-15T05:08:59;10.10;;;9.20;;
12407;SDS011;6268;48.188;17.134;2023-04-15T05:11:29;9.53;;;8.83;;
12407;SDS011;6268;48.188;17.134;2023-04-15T05:13:57;10.40;;;9.60;;
12407;SDS011;6268;48.188;17.134;2023-04-15T05:16:27;10.17;;;9.37;;
12407;SDS011;6268;48.188;17.134;2023-04-15T05:18:57;9.60;;;9.00;;
12407;SDS011;6268;48.188;17.134;2023-04-15T05:21:26;9.00;;;8.30;;
12407;SDS011;6268;48.188;17.134;2023-04-15T05:23:56;10.03;;;9.33;;
12407;SDS011;6268;48.188;17.134;2023-04-15T05:26:34;8.70;;;8.10;;
12407;SDS011;6268;48.188;17.134;2023-04-15T05:29:15;9.17;;;8.47;;
12407;SDS011;6268;48.188;17.134;2023-04-15T05:31:44;8.40;;;7.77;;
12407;SDS011;6268;48.188;17.134;2023-04-15T05:34:13;8.23;;;7.73;;
12407;SDS011;6268;48.188;17.134;2023-04-15T05:36:43;8.17;;;7.67;;
12407;SDS011;6268;48.188;17.134;2023-04-15T05:39:13;7.50;;;6.90;;
12407;SDS011;6268;48.188;17.134;2023-04-15T05:41:42;7.87;;;7.37;;
12407;SDS011;6268;48.188;17.134;2023-04-15T05:44:11;7.27;;;6.77;;
12407;SDS011;6268;48.188;17.134;2023-04-15T05:46:40;6.93;;;6.50;;
12407;SDS011;6268;48.188;17.134;2023-04-15T05:49:10;7.57;;;7.07;;
12407;SDS011;6268;48.188;17.134;2023-04-15T05:51:38;7.90;;;7.30;;
12407;SDS011;6268;48.188;17.134;2023-04-15T05:54:07;7.23;;;6.83;;
12407;SDS011;6268;48.188;17.134;2023-04-15T05:56:37;7.73;;;7.20;;
12407;SDS011;6268;48.188;17.134;2023-04-15T05:59:06;7.80;;;7.30;;
12407;SDS011;6268;48.188;17.134;2023-04-15T06:01:35;8.13;;;7.63;;
12407;SDS011;6268;48.188;17.134;2023-04-15T06:04:05;6.87;;;6.47;;
12407;SDS011;6268;48.188;17.134;2023-04-15T06:06:35;7.43;;;6.93;;
12407;SDS011;6268;48.188;17.134;2023-04-15T06:09:04;7.30;;;6.90;;
12407;SDS011;6268;48.188;17.134;2023-04-15T06:11:33;7.67;;;7.07;;
12407;SDS011;6268;48.188;17.134;2023-04-15T06:14:04;7.50;;;7.00;;
12407;SDS011;6268;48.188;17.134;2023-04-15T06:16:33;8.67;;;8.17;;
12407;SDS011;6268;48.188;17.134;2023-04-15T06:19:02;19.52;;;17.73;;
12407;SDS011;6268;48.188;17.134;2023-04-15T06:21:31;15.57;;;14.17;;
12407;SDS011;6268;48.188;17.134;2023-04-15T06:24:00;10.43;;;9.53;;
12407;SDS011;6268;48.188;17.134;2023-04-15T06:26:29;8.52;;;7.93;;
12407;SDS011;6268;48.188;17.134;2023-04-15T06:28:58;6.45;;;6.05;;
12407;SDS011;6268;48.188;17.134;2023-04-15T06:31:29;6.82;;;6.38;;
12407;SDS011;6268;48.188;17.134;2023-04-15T06:33:57;6.90;;;6.50;;
12407;SDS011;6268;48.188;17.134;2023-04-15T06:36:26;15.05;;;13.80;;
12407;SDS011;6268;48.188;17.134;2023-04-15T06:38:56;11.15;;;10.25;;
12407;SDS011;6268;48.188;17.134;2023-04-15T06:41:25;7.93;;;7.32;;
12407;SDS011;6268;48.188;17.134;2023-04-15T06:43:53;8.47;;;7.83;;
12407;SDS011;6268;48.188;17.134;2023-04-15T06:46:22;5.72;;;5.35;;
12407;SDS011;6268;48.188;17.134;2023-04-15T06:48:53;4.50;;;4.20;;
12407;SDS011;6268;48.188;17.134;2023-04-15T06:51:22;3.90;;;3.70;;
12407;SDS011;6268;48.188;17.134;2023-04-15T06:53:52;3.70;;;3.50;;
12407;SDS011;6268;48.188;17.134;2023-04-15T06:56:21;4.60;;;4.30;;
12407;SDS011;6268;48.188;17.134;2023-04-15T06:58:50;6.17;;;5.70;;
12407;SDS011;6268;48.188;17.134;2023-04-15T07:01:19;13.15;;;11.95;;
12407;SDS011;6268;48.188;17.134;2023-04-15T07:03:48;5.25;;;4.95;;
12407;SDS011;6268;48.188;17.134;2023-04-15T07:06:19;4.80;;;4.50;;
12407;SDS011;6268;48.188;17.134;2023-04-15T07:08:50;4.18;;;3.90;;
12407;SDS011;6268;48.188;17.134;2023-04-15T07:11:19;3.80;;;3.60;;
12407;SDS011;6268;48.188;17.134;2023-04-15T07:13:48;2.97;;;2.78;;
12407;SDS011;6268;48.188;17.134;2023-04-15T07:16:17;2.60;;;2.40;;
12407;SDS011;6268;48.188;17.134;2023-04-15T07:18:48;2.70;;;2.58;;
12407;SDS011;6268;48.188;17.134;2023-04-15T07:21:18;2.00;;;1.90;;
12407;SDS011;6268;48.188;17.134;2023-04-15T07:23:47;1.60;;;1.50;;
12407;SDS011;6268;48.188;17.134;2023-04-15T07:26:18;1.50;;;1.50;;
12407;SDS011;6268;48.188;17.134;2023-04-15T07:28:47;1.30;;;1.30;;
12407;SDS011;6268;48.188;17.134;2023-04-15T07:31:17;1.70;;;1.60;;
12407;SDS011;6268;48.188;17.134;2023-04-15T07:33:46;1.40;;;1.40;;
12407;SDS011;6268;48.188;17.134;2023-04-15T07:36:15;1.60;;;1.50;;
12407;SDS011;6268;48.188;17.134;2023-04-15T07:38:45;1.60;;;1.50;;
12407;SDS011;6268;48.188;17.134;2023-04-15T07:41:14;1.70;;;1.60;;
12407;SDS011;6268;48.188;17.134;2023-04-15T07:43:44;1.60;;;1.50;;
12407;SDS011;6268;48.188;17.134;2023-04-15T07:46:14;1.40;;;1.40;;
12407;SDS011;6268;48.188;17.134;2023-04-15T07:48:45;2.00;;;1.90;;
12407;SDS011;6268;48.188;17.134;2023-04-15T07:51:15;2.10;;;2.00;;
12407;SDS011;6268;48.188;17.134;2023-04-15T07:53:46;2.50;;;2.40;;
12407;SDS011;6268;48.188;17.134;2023-04-15T07:56:17;2.40;;;2.30;;
12407;SDS011;6268;48.188;17.134;2023-04-15T07:58:47;2.40;;;2.30;;
12407;SDS011;6268;48.188;17.134;2023-04-15T08:01:16;2.03;;;1.92;;
12407;SDS011;6268;48.188;17.134;2023-04-15T08:03:45;5.20;;;4.80;;
12407;SDS011;6268;48.188;17.134;2023-04-15T08:06:14;3.92;;;3.63;;
12407;SDS011;6268;48.188;17.134;2023-04-15T08:08:43;4.03;;;3.83;;
12407;SDS011;6268;48.188;17.134;2023-04-15T08:11:13;11.80;;;10.60;;
12407;SDS011;6268;48.188;17.134;2023-04-15T08:13:42;14.65;;;13.23;;
12407;SDS011;6268;48.188;17.134;2023-04-15T08:16:18;9.00;;;8.10;;
12407;SDS011;6268;48.188;17.134;2023-04-15T08:18:50;2.72;;;2.60;;
12407;SDS011;6268;48.188;17.134;2023-04-15T08:21:22;2.67;;;2.53;;
12407;SDS011;6268;48.188;17.134;2023-04-15T08:23:53;2.15;;;2.05;;
12407;SDS011;6268;48.188;17.134;2023-04-15T08:26:22;2.17;;;2.08;;
12407;SDS011;6268;48.188;17.134;2023-04-15T08:28:51;2.22;;;2.13;;
12407;SDS011;6268;48.188;17.134;2023-04-15T08:31:20;2.30;;;2.20;;
12407;SDS011;6268;48.188;17.134;2023-04-15T08:33:49;3.67;;;3.47;;
12407;SDS011;6268;48.188;17.134;2023-04-15T08:36:21;4.25;;;3.95;;
12407;SDS011;6268;48.188;17.134;2023-04-15T08:38:55;3.00;;;2.90;;
12407;SDS011;6268;48.188;17.134;2023-04-15T08:41:24;1.90;;;1.80;;
12407;SDS011;6268;48.188;17.134;2023-04-15T08:43:56;2.20;;;2.10;;
12407;SDS011;6268;48.188;17.134;2023-04-15T08:46:30;1.30;;;1.30;;
12407;SDS011;6268;48.188;17.134;2023-04-15T08:49:02;2.05;;;1.20;;
12407;SDS011;6268;48.188;17.134;2023-04-15T08:51:32;0.90;;;0.90;;
12407;SDS011;6268;48.188;17.134;2023-04-15T08:54:03;0.68;;;0.68;;
12407;SDS011;6268;48.188;17.134;2023-04-15T08:56:32;0.82;;;0.82;;
12407;SDS011;6268;48.188;17.134;2023-04-15T08:59:02;0.90;;;0.90;;
12407;SDS011;6268;48.188;17.134;2023-04-15T09:01:32;2.50;;;2.30;;
12407;SDS011;6268;48.188;17.134;2023-04-15T09:04:04;1.67;;;1.58;;
12407;SDS011;6268;48.188;17.134;2023-04-15T09:06:34;1.02;;;1.02;;
12407;SDS011;6268;48.188;17.134;2023-04-15T09:09:04;1.10;;;1.02;;
12407;SDS011;6268;48.188;17.134;2023-04-15T09:11:33;0.90;;;0.90;;
12407;SDS011;6268;48.188;17.134;2023-04-15T09:14:02;0.90;;;0.90;;
12407;SDS011;6268;48.188;17.134;2023-04-15T09:16:31;1.13;;;1.02;;
12407;SDS011;6268;48.188;17.134;2023-04-15T09:19:23;2.00;;;1.90;;
12407;SDS011;6268;48.188;17.134;2023-04-15T09:21:53;0.70;;;0.70;;
12407;SDS011;6268;48.188;17.134;2023-04-15T09:24:32;1.10;;;1.00;;
12407;SDS011;6268;48.188;17.134;2023-04-15T09:27:04;0.60;;;0.60;;
12407;SDS011;6268;48.188;17.134;2023-04-15T09:29:34;0.90;;;0.90;;
12407;SDS011;6268;48.188;17.134;2023-04-15T09:32:10;0.82;;;0.82;;
12407;SDS011;6268;48.188;17.134;2023-04-15T09:34:40;1.95;;;1.85;;
12407;SDS011;6268;48.188;17.134;2023-04-15T09:37:09;0.80;;;0.80;;
12407;SDS011;6268;48.188;17.134;2023-04-15T09:39:58;1.00;;;1.00;;
12407;SDS011;6268;48.188;17.134;2023-04-15T09:42:27;0.75;;;0.75;;
12407;SDS011;6268;48.188;17.134;2023-04-15T09:45:06;1.20;;;1.10;;
12407;SDS011;6268;48.188;17.134;2023-04-15T09:47:36;0.70;;;0.70;;
12407;SDS011;6268;48.188;17.134;2023-04-15T09:50:05;0.80;;;0.80;;
12407;SDS011;6268;48.188;17.134;2023-04-15T09:52:39;0.80;;;0.80;;
12407;SDS011;6268;48.188;17.134;2023-04-15T09:55:11;0.90;;;0.90;;
12407;SDS011;6268;48.188;17.134;2023-04-15T09:57:42;0.98;;;0.98;;
12407;SDS011;6268;48.188;17.134;2023-04-15T10:00:13;0.88;;;0.88;;
12407;SDS011;6268;48.188;17.134;2023-04-15T10:02:42;0.90;;;0.85;;
12407;SDS011;6268;48.188;17.134;2023-04-15T10:05:14;0.93;;;0.90;;
12407;SDS011;6268;48.188;17.134;2023-04-15T10:07:44;0.80;;;0.80;;
12407;SDS011;6268;48.188;17.134;2023-04-15T10:10:15;0.85;;;0.85;;
12407;SDS011;6268;48.188;17.134;2023-04-15T10:12:44;0.93;;;0.93;;
12407;SDS011;6268;48.188;17.134;2023-04-15T10:15:14;0.88;;;0.88;;
12407;SDS011;6268;48.188;17.134;2023-04-15T10:17:43;0.77;;;0.77;;
12407;SDS011;6268;48.188;17.134;2023-04-15T10:20:14;1.05;;;1.05;;
12407;SDS011;6268;48.188;17.134;2023-04-15T10:22:46;0.70;;;0.70;;
12407;SDS011;6268;48.188;17.134;2023-04-15T10:25:18;0.98;;;0.98;;
12407;SDS011;6268;48.188;17.134;2023-04-15T10:27:48;1.92;;;0.88;;
12407;SDS011;6268;48.188;17.134;2023-04-15T10:30:19;0.70;;;0.70;;
12407;SDS011;6268;48.188;17.134;2023-04-15T10:32:49;0.70;;;0.70;;
12407;SDS011;6268;48.188;17.134;2023-04-15T10:35:19;0.70;;;0.70;;
12407;SDS011;6268;48.188;17.134;2023-04-15T10:37:49;0.90;;;0.90;;
12407;SDS011;6268;48.188;17.134;2023-04-15T10:40:27;1.50;;;1.48;;
12407;SDS011;6268;48.188;17.134;2023-04-15T10:42:58;0.60;;;0.60;;
12407;SDS011;6268;48.188;17.134;2023-04-15T10:45:31;14.07;;;13.00;;
12407;SDS011;6268;48.188;17.134;2023-04-15T10:48:05;0.90;;;0.90;;
12407;SDS011;6268;48.188;17.134;2023-04-15T10:50:35;8.70;;;7.90;;
12407;SDS011;6268;48.188;17.134;2023-04-15T10:53:05;1.70;;;1.60;;
12407;SDS011;6268;48.188;17.134;2023-04-15T10:55:38;2.22;;;2.13;;
12407;SDS011;6268;48.188;17.134;2023-04-15T10:58:07;2.35;;;2.25;;
12407;SDS011;6268;48.188;17.134;2023-04-15T11:00:37;2.17;;;1.95;;
12407;SDS011;6268;48.188;17.134;2023-04-15T11:03:07;2.38;;;2.03;;
12407;SDS011;6268;48.188;17.134;2023-04-15T11:05:49;3.33;;;2.90;;
12407;SDS011;6268;48.188;17.134;2023-04-15T11:08:20;3.10;;;2.90;;
12407;SDS011;6268;48.188;17.134;2023-04-15T11:11:24;4.50;;;4.20;;
12407;SDS011;6268;48.188;17.134;2023-04-15T11:14:33;4.85;;;4.40;;
12407;SDS011;6268;48.188;17.134;2023-04-15T11:17:06;4.00;;;3.70;;
12407;SDS011;6268;48.188;17.134;2023-04-15T11:19:36;3.03;;;2.70;;
12407;SDS011;6268;48.188;17.134;2023-04-15T11:22:06;1.85;;;1.75;;
12407;SDS011;6268;48.188;17.134;2023-04-15T11:24:36;1.10;;;1.10;;
12407;SDS011;6268;48.188;17.134;2023-04-15T11:27:21;1.20;;;1.20;;
12407;SDS011;6268;48.188;17.134;2023-04-15T11:29:50;1.20;;;1.20;;
12407;SDS011;6268;48.188;17.134;2023-04-15T11:32:20;2.80;;;2.60;;
12407;SDS011;6268;48.188;17.134;2023-04-15T11:34:50;1.35;;;1.25;;
12407;SDS011;6268;48.188;17.134;2023-04-15T11:37:26;1.98;;;1.85;;
12407;SDS011;6268;48.188;17.134;2023-04-15T11:39:56;0.88;;;0.88;;
12407;SDS011;6268;48.188;17.134;2023-04-15T11:42:26;1.02;;;1.02;;
12407;SDS011;6268;48.188;17.134;2023-04-15T11:45:14;0.73;;;0.73;;
12407;SDS011;6268;48.188;17.134;2023-04-15T11:47:43;3.67;;;1.30;;
12407;SDS011;6268;48.188;17.134;2023-04-15T11:50:15;0.40;;;0.40;;
12407;SDS011;6268;48.188;17.134;2023-04-15T11:52:52;0.45;;;0.45;;
12407;SDS011;6268;48.188;17.134;2023-04-15T11:55:22;0.40;;;0.40;;
12407;SDS011;6268;48.188;17.134;2023-04-15T11:58:06;0.60;;;0.60;;
12407;SDS011;6268;48.188;17.134;2023-04-15T12:00:37;0.52;;;0.43;;
12407;SDS011;6268;48.188;17.134;2023-04-15T12:03:10;0.50;;;0.50;;
12407;SDS011;6268;48.188;17.134;2023-04-15T12:06:03;0.93;;;0.50;;
12407;SDS011;6268;48.188;17.134;2023-04-15T12:08:54;0.68;;;0.68;;
12407;SDS011;6268;48.188;17.134;2023-04-15T12:11:30;0.60;;;0.60;;
12407;SDS011;6268;48.188;17.134;2023-04-15T12:14:04;0.40;;;0.40;;
12407;SDS011;6268;48.188;17.134;2023-04-15T12:16:37;0.30;;;0.30;;
12407;SDS011;6268;48.188;17.134;2023-04-15T12:19:15;0.30;;;0.30;;
12407;SDS011;6268;48.188;17.134;2023-04-15T12:21:52;0.30;;;0.30;;
12407;SDS011;6268;48.188;17.134;2023-04-15T12:24:29;0.40;;;0.40;;
12407;SDS011;6268;48.188;17.134;2023-04-15T12:27:03;4.93;;;4.53;;
12407;SDS011;6268;48.188;17.134;2023-04-15T12:29:35;2.60;;;0.60;;
12407;SDS011;6268;48.188;17.134;2023-04-15T12:32:07;4.65;;;4.30;;
12407;SDS011;6268;48.188;17.134;2023-04-15T12:34:37;0.60;;;0.60;;
12407;SDS011;6268;48.188;17.134;2023-04-15T12:37:08;0.40;;;0.40;;
12407;SDS011;6268;48.188;17.134;2023-04-15T12:39:40;0.45;;;0.45;;
12407;SDS011;6268;48.188;17.134;2023-04-15T12:42:10;0.70;;;0.70;;
12407;SDS011;6268;48.188;17.134;2023-04-15T12:44:41;1.00;;;0.90;;
12407;SDS011;6268;48.188;17.134;2023-04-15T12:47:10;1.95;;;1.67;;
12407;SDS011;6268;48.188;17.134;2023-04-15T12:49:39;1.58;;;1.48;;
12407;SDS011;6268;48.188;17.134;2023-04-15T12:52:08;1.02;;;0.95;;
12407;SDS011;6268;48.188;17.134;2023-04-15T12:54:37;0.40;;;0.40;;
12407;SDS011;6268;48.188;17.134;2023-04-15T12:57:06;1.30;;;0.73;;
12407;SDS011;6268;48.188;17.134;2023-04-15T12:59:35;0.55;;;0.55;;
12407;SDS011;6268;48.188;17.134;2023-04-15T13:02:05;0.20;;;0.20;;
12407;SDS011;6268;48.188;17.134;2023-04-15T13:04:35;1.30;;;1.20;;
12407;SDS011;6268;48.188;17.134;2023-04-15T13:07:04;0.22;;;0.20;;
12407;SDS011;6268;48.188;17.134;2023-04-15T13:09:32;1.83;;;0.63;;
12407;SDS011;6268;48.188;17.134;2023-04-15T13:12:01;0.20;;;0.20;;
12407;SDS011;6268;48.188;17.134;2023-04-15T13:14:31;0.45;;;0.20;;
12407;SDS011;6268;48.188;17.134;2023-04-15T13:16:59;1.23;;;0.40;;
12407;SDS011;6268;48.188;17.134;2023-04-15T13:19:31;0.38;;;0.38;;
12407;SDS011;6268;48.188;17.134;2023-04-15T13:22:02;0.40;;;0.40;;
12407;SDS011;6268;48.188;17.134;2023-04-15T13:24:30;0.25;;;0.25;;
12407;SDS011;6268;48.188;17.134;2023-04-15T13:26:59;0.20;;;0.20;;
12407;SDS011;6268;48.188;17.134;2023-04-15T13:29:29;0.17;;;0.17;;
12407;SDS011;6268;48.188;17.134;2023-04-15T13:31:58;0.38;;;0.20;;
12407;SDS011;6268;48.188;17.134;2023-04-15T13:34:27;0.20;;;0.20;;
12407;SDS011;6268;48.188;17.134;2023-04-15T13:36:57;0.20;;;0.20;;
12407;SDS011;6268;48.188;17.134;2023-04-15T13:39:32;0.20;;;0.13;;
12407;SDS011;6268;48.188;17.134;2023-04-15T13:42:01;0.57;;;0.57;;
12407;SDS011;6268;48.188;17.134;2023-04-15T13:44:29;0.10;;;0.10;;
12407;SDS011;6268;48.188;17.134;2023-04-15T13:46:58;0.20;;;0.20;;
12407;SDS011;6268;48.188;17.134;2023-04-15T13:49:27;0.10;;;0.10;;
12407;SDS011;6268;48.188;17.134;2023-04-15T13:51:57;0.28;;;0.20;;
12407;SDS011;6268;48.188;17.134;2023-04-15T13:54:26;0.20;;;0.20;;
12407;SDS011;6268;48.188;17.134;2023-04-15T13:57:03;0.40;;;0.40;;
12407;SDS011;6268;48.188;17.134;2023-04-15T13:59:33;1.20;;;1.20;;
12407;SDS011;6268;48.188;17.134;2023-04-15T14:02:01;13.00;;;10.15;;
12407;SDS011;6268;48.188;17.134;2023-04-15T14:04:30;1.13;;;1.13;;
12407;SDS011;6268;48.188;17.134;2023-04-15T14:07:01;2.30;;;0.70;;
12407;SDS011;6268;48.188;17.134;2023-04-15T14:09:30;0.52;;;0.52;;
12407;SDS011;6268;48.188;17.134;2023-04-15T14:12:01;0.80;;;0.80;;
12407;SDS011;6268;48.188;17.134;2023-04-15T14:14:29;0.60;;;0.60;;
12407;SDS011;6268;48.188;17.134;2023-04-15T14:16:58;0.70;;;0.70;;
12407;SDS011;6268;48.188;17.134;2023-04-15T14:19:28;0.80;;;0.80;;
12407;SDS011;6268;48.188;17.134;2023-04-15T14:21:58;1.38;;;0.50;;
12407;SDS011;6268;48.188;17.134;2023-04-15T14:24:28;0.30;;;0.30;;
12407;SDS011;6268;48.188;17.134;2023-04-15T14:26:57;0.30;;;0.30;;
12407;SDS011;6268;48.188;17.134;2023-04-15T14:29:27;0.40;;;0.40;;
12407;SDS011;6268;48.188;17.134;2023-04-15T14:31:56;0.10;;;0.10;;
12407;SDS011;6268;48.188;17.134;2023-04-15T14:34:38;0.40;;;0.30;;
12407;SDS011;6268;48.188;17.134;2023-04-15T14:37:06;0.50;;;0.50;;
12407;SDS011;6268;48.188;17.134;2023-04-15T14:39:37;0.50;;;0.50;;
12407;SDS011;6268;48.188;17.134;2023-04-15T14:42:06;1.23;;;0.50;;
12407;SDS011;6268;48.188;17.134;2023-04-15T14:44:34;0.40;;;0.40;;
12407;SDS011;6268;48.188;17.134;2023-04-15T14:47:03;0.43;;;0.43;;
12407;SDS011;6268;48.188;17.134;2023-04-15T14:49:33;0.73;;;0.50;;
12407;SDS011;6268;48.188;17.134;2023-04-15T14:52:01;0.20;;;0.20;;
12407;SDS011;6268;48.188;17.134;2023-04-15T14:54:30;1.17;;;1.08;;
12407;SDS011;6268;48.188;17.134;2023-04-15T14:57:00;0.98;;;0.98;;
12407;SDS011;6268;48.188;17.134;2023-04-15T14:59:29;1.15;;;0.50;;
12407;SDS011;6268;48.188;17.134;2023-04-15T15:01:58;0.25;;;0.25;;
12407;SDS011;6268;48.188;17.134;2023-04-15T15:04:27;0.40;;;0.40;;